sensor_id;sensor_type;location;lat;lon;timestamp;pressure;altitude;pressure_sealevel;temperature;humidity
7376;BME280;3728;42.266;24.944;2023-02-28T00:00:35;100074.47;;;10.92;85.31
7376;BME280;3728;42.266;24.944;2023-02-28T00:03:04;100081.06;;;10.90;85.55
7376;BME280;3728;42.266;24.944;2023-02-28T00:05:32;100085.69;;;10.79;85.39
7376;BME280;3728;42.266;24.944;2023-02-28T00:08:00;100084.25;;;10.87;84.88
7376;BME280;3728;42.266;24.944;2023-02-28T00:10:29;100094.19;;;11.04;84.45
7376;BME280;3728;42.266;24.944;2023-02-28T00:13:03;100101.84;;;11.59;80.83
7376;BME280;3728;42.266;24.944;2023-02-28T00:15:32;100105.28;;;11.14;82.79
7376;BME280;3728;42.266;24.944;2023-02-28T00:18:00;100109.19;;;10.84;84.89
7376;BME280;3728;42.266;24.944;2023-02-28T00:20:27;100110.06;;;10.80;86.29
7376;BME280;3728;42.266;24.944;2023-02-28T00:22:56;100113.34;;;11.04;87.88
7376;BME280;3728;42.266;24.944;2023-02-28T00:25:25;100103.84;;;10.76;87.43
7376;BME280;3728;42.266;24.944;2023-02-28T00:27:52;100106.72;;;10.74;89.26
7376;BME280;3728;42.266;24.944;2023-02-28T00:30:22;100111.44;;;10.91;90.41
7376;BME280;3728;42.266;24.944;2023-02-28T00:32:50;100100.16;;;10.90;88.67
7376;BME280;3728;42.266;24.944;2023-02-28T00:35:18;100095.41;;;10.60;91.47
7376;BME280;3728;42.266;24.944;2023-02-28T00:37:47;100109.50;;;10.83;93.26
7376;BME280;3728;42.266;24.944;2023-02-28T00:40:16;100105.19;;;11.06;89.18
7376;BME280;3728;42.266;24.944;2023-02-28T00:42:43;100104.94;;;10.88;89.73
7376;BME280;3728;42.266;24.944;2023-02-28T00:45:11;100097.00;;;11.07;90.21
7376;BME280;3728;42.266;24.944;2023-02-28T00:47:39;100096.31;;;10.88;88.59
7376;BME280;3728;42.266;24.944;2023-02-28T00:50:07;100100.38;;;10.94;88.31
7376;BME280;3728;42.266;24.944;2023-02-28T00:52:36;100095.22;;;10.89;88.68
7376;BME280;3728;42.266;24.944;2023-02-28T00:55:04;100103.56;;;10.59;89.46
7376;BME280;3728;42.266;24.944;2023-02-28T00:57:32;100112.13;;;10.27;92.72
7376;BME280;3728;42.266;24.944;2023-02-28T00:59:59;100108.19;;;10.06;94.73
7376;BME280;3728;42.266;24.944;2023-02-28T01:02:27;100099.34;;;10.02;96.05
7376;BME280;3728;42.266;24.944;2023-02-28T01:04:55;100099.59;;;10.05;96.88
7376;BME280;3728;42.266;24.944;2023-02-28T01:07:23;100100.06;;;10.12;96.80
7376;BME280;3728;42.266;24.944;2023-02-28T01:09:51;100113.03;;;10.17;95.91
7376;BME280;3728;42.266;24.944;2023-02-28T01:12:18;100113.84;;;10.37;94.82
7376;BME280;3728;42.266;24.944;2023-02-28T01:14:46;100111.63;;;10.44;93.66
7376;BME280;3728;42.266;24.944;2023-02-28T01:17:13;100112.84;;;10.51;93.80
7376;BME280;3728;42.266;24.944;2023-02-28T01:19:42;100116.44;;;10.55;93.32
7376;BME280;3728;42.266;24.944;2023-02-28T01:22:09;100136.63;;;10.55;93.87
7376;BME280;3728;42.266;24.944;2023-02-28T01:24:37;100147.59;;;10.57;93.11
7376;BME280;3728;42.266;24.944;2023-02-28T01:27:05;100149.00;;;10.68;92.25
7376;BME280;3728;42.266;24.944;2023-02-28T01:29:32;100157.44;;;10.65;92.67
7376;BME280;3728;42.266;24.944;2023-02-28T01:32:00;100163.00;;;10.77;93.22
7376;BME280;3728;42.266;24.944;2023-02-28T01:34:28;100156.50;;;10.74;92.77
7376;BME280;3728;42.266;24.944;2023-02-28T01:36:55;100157.34;;;10.70;92.89
7376;BME280;3728;42.266;24.944;2023-02-28T01:39:25;100155.66;;;10.79;94.41
7376;BME280;3728;42.266;24.944;2023-02-28T01:41:53;100160.19;;;10.92;93.75
7376;BME280;3728;42.266;24.944;2023-02-28T01:47:30;100166.75;;;11.22;94.90
7376;BME280;3728;42.266;24.944;2023-02-28T01:50:02;100173.47;;;11.74;95.13
7376;BME280;3728;42.266;24.944;2023-02-28T01:52:33;100176.00;;;11.92;93.95
7376;BME280;3728;42.266;24.944;2023-02-28T01:55:04;100189.63;;;12.71;91.80
7376;BME280;3728;42.266;24.944;2023-02-28T01:57:38;100183.78;;;12.74;91.02
7376;BME280;3728;42.266;24.944;2023-02-28T02:00:18;100183.94;;;12.55;93.19
7376;BME280;3728;42.266;24.944;2023-02-28T02:02:51;100191.50;;;12.57;95.01
7376;BME280;3728;42.266;24.944;2023-02-28T02:05:24;100188.72;;;12.40;95.68
7376;BME280;3728;42.266;24.944;2023-02-28T02:07:56;100197.06;;;12.42;96.27
7376;BME280;3728;42.266;24.944;2023-02-28T02:10:48;100184.38;;;12.21;98.95
7376;BME280;3728;42.266;24.944;2023-02-28T02:13:24;100191.28;;;12.04;100.00
7376;BME280;3728;42.266;24.944;2023-02-28T02:16:09;100200.91;;;11.95;100.00
7376;BME280;3728;42.266;24.944;2023-02-28T02:18:59;100197.09;;;11.87;100.00
7376;BME280;3728;42.266;24.944;2023-02-28T02:34:38;100210.53;;;11.99;100.00
7376;BME280;3728;42.266;24.944;2023-02-28T02:48:12;100208.59;;;12.18;100.00
7376;BME280;3728;42.266;24.944;2023-02-28T02:50:46;100217.53;;;12.17;100.00
7376;BME280;3728;42.266;24.944;2023-02-28T02:53:18;100220.63;;;12.33;97.73
7376;BME280;3728;42.266;24.944;2023-02-28T02:55:52;100212.56;;;12.43;97.24
7376;BME280;3728;42.266;24.944;2023-02-28T02:58:28;100212.31;;;12.53;95.31
7376;BME280;3728;42.266;24.944;2023-02-28T03:01:02;100213.81;;;12.46;94.50
7376;BME280;3728;42.266;24.944;2023-02-28T03:03:32;100231.53;;;12.40;95.58
7376;BME280;3728;42.266;24.944;2023-02-28T03:06:02;100237.25;;;12.42;95.16
7376;BME280;3728;42.266;24.944;2023-02-28T03:08:34;100240.06;;;12.59;93.57
7376;BME280;3728;42.266;24.944;2023-02-28T03:11:06;100244.34;;;12.55;93.90
7376;BME280;3728;42.266;24.944;2023-02-28T03:14:10;100247.63;;;12.61;92.99
7376;BME280;3728;42.266;24.944;2023-02-28T03:22:51;100267.63;;;12.48;92.51
7376;BME280;3728;42.266;24.944;2023-02-28T03:25:29;100267.72;;;12.43;92.13
7376;BME280;3728;42.266;24.944;2023-02-28T03:30:57;100271.13;;;12.30;92.75
7376;BME280;3728;42.266;24.944;2023-02-28T03:33:34;100266.53;;;12.08;93.93
7376;BME280;3728;42.266;24.944;2023-02-28T03:36:10;100263.50;;;11.88;95.56
7376;BME280;3728;42.266;24.944;2023-02-28T03:38:46;100275.16;;;11.82;96.55
7376;BME280;3728;42.266;24.944;2023-02-28T03:41:23;100273.63;;;11.94;96.28
7376;BME280;3728;42.266;24.944;2023-02-28T03:44:07;100276.09;;;12.31;93.91
7376;BME280;3728;42.266;24.944;2023-02-28T03:46:49;100275.09;;;12.27;92.25
7376;BME280;3728;42.266;24.944;2023-02-28T03:49:30;100278.31;;;12.38;91.34
7376;BME280;3728;42.266;24.944;2023-02-28T03:52:06;100286.22;;;12.24;91.58
7376;BME280;3728;42.266;24.944;2023-02-28T03:54:41;100289.09;;;11.96;92.91
7376;BME280;3728;42.266;24.944;2023-02-28T03:57:17;100289.09;;;12.09;93.01
7376;BME280;3728;42.266;24.944;2023-02-28T04:00:08;100284.16;;;12.08;92.15
7376;BME280;3728;42.266;24.944;2023-02-28T04:02:53;100290.28;;;12.03;91.58
7376;BME280;3728;42.266;24.944;2023-02-28T04:05:21;100283.06;;;11.95;92.34
7376;BME280;3728;42.266;24.944;2023-02-28T04:07:49;100288.63;;;11.94;92.96
7376;BME280;3728;42.266;24.944;2023-02-28T04:10:17;100294.75;;;12.03;91.98
7376;BME280;3728;42.266;24.944;2023-02-28T04:12:45;100293.69;;;11.72;93.51
7376;BME280;3728;42.266;24.944;2023-02-28T04:15:12;100293.13;;;11.75;93.75
7376;BME280;3728;42.266;24.944;2023-02-28T04:17:40;100306.03;;;12.03;91.81
7376;BME280;3728;42.266;24.944;2023-02-28T04:20:08;100310.41;;;12.08;91.17
7376;BME280;3728;42.266;24.944;2023-02-28T04:22:36;100315.91;;;11.93;92.73
7376;BME280;3728;42.266;24.944;2023-02-28T04:25:04;100311.44;;;11.93;92.36
7376;BME280;3728;42.266;24.944;2023-02-28T04:27:33;100319.91;;;12.04;89.99
7376;BME280;3728;42.266;24.944;2023-02-28T04:30:00;100325.81;;;11.82;90.99
7376;BME280;3728;42.266;24.944;2023-02-28T04:32:28;100317.72;;;11.79;91.02
7376;BME280;3728;42.266;24.944;2023-02-28T04:34:56;100317.72;;;11.79;92.80
7376;BME280;3728;42.266;24.944;2023-02-28T04:37:23;100311.59;;;11.70;91.92
7376;BME280;3728;42.266;24.944;2023-02-28T04:39:55;100315.19;;;11.74;91.53
7376;BME280;3728;42.266;24.944;2023-02-28T04:42:22;100316.69;;;11.80;90.39
7376;BME280;3728;42.266;24.944;2023-02-28T04:44:50;100312.06;;;11.72;90.64
7376;BME280;3728;42.266;24.944;2023-02-28T04:47:17;100306.03;;;11.71;90.87
7376;BME280;3728;42.266;24.944;2023-02-28T04:49:45;100306.94;;;11.61;92.27
7376;BME280;3728;42.266;24.944;2023-02-28T04:52:12;100304.50;;;11.70;91.83
7376;BME280;3728;42.266;24.944;2023-02-28T04:54:40;100304.00;;;11.68;91.55
7376;BME280;3728;42.266;24.944;2023-02-28T04:57:07;100302.56;;;11.76;91.15
7376;BME280;3728;42.266;24.944;2023-02-28T04:59:35;100304.47;;;12.16;88.94
7376;BME280;3728;42.266;24.944;2023-02-28T05:02:02;100325.50;;;12.29;87.64
7376;BME280;3728;42.266;24.944;2023-02-28T05:04:34;100322.28;;;12.05;87.56
7376;BME280;3728;42.266;24.944;2023-02-28T05:07:02;100332.81;;;11.87;89.15
7376;BME280;3728;42.266;24.944;2023-02-28T05:09:30;100337.44;;;11.57;90.42
7376;BME280;3728;42.266;24.944;2023-02-28T05:11:59;100337.25;;;11.35;92.03
7376;BME280;3728;42.266;24.944;2023-02-28T05:14:26;100340.22;;;11.10;93.51
7376;BME280;3728;42.266;24.944;2023-02-28T05:16:54;100343.13;;;10.90;94.33
7376;BME280;3728;42.266;24.944;2023-02-28T05:19:21;100346.84;;;10.84;95.72
7376;BME280;3728;42.266;24.944;2023-02-28T05:21:54;100350.84;;;11.00;95.51
7376;BME280;3728;42.266;24.944;2023-02-28T05:24:22;100351.41;;;10.97;95.05
7376;BME280;3728;42.266;24.944;2023-02-28T05:26:51;100363.25;;;10.71;96.09
7376;BME280;3728;42.266;24.944;2023-02-28T05:29:20;100358.56;;;10.91;95.40
7376;BME280;3728;42.266;24.944;2023-02-28T05:31:47;100350.94;;;10.95;94.79
7376;BME280;3728;42.266;24.944;2023-02-28T05:34:15;100366.00;;;11.03;94.89
7376;BME280;3728;42.266;24.944;2023-02-28T05:36:43;100369.88;;;11.29;92.88
7376;BME280;3728;42.266;24.944;2023-02-28T05:39:11;100371.69;;;11.10;92.17
7376;BME280;3728;42.266;24.944;2023-02-28T05:41:43;100372.09;;;10.98;93.72
7376;BME280;3728;42.266;24.944;2023-02-28T05:44:11;100382.41;;;11.14;92.00
7376;BME280;3728;42.266;24.944;2023-02-28T05:46:39;100382.91;;;11.34;90.64
7376;BME280;3728;42.266;24.944;2023-02-28T05:49:06;100385.72;;;11.19;92.06
7376;BME280;3728;42.266;24.944;2023-02-28T05:51:34;100391.81;;;11.33;90.45
7376;BME280;3728;42.266;24.944;2023-02-28T05:54:03;100389.06;;;11.25;90.96
7376;BME280;3728;42.266;24.944;2023-02-28T05:56:31;100395.59;;;11.27;91.01
7376;BME280;3728;42.266;24.944;2023-02-28T05:59:01;100404.56;;;11.21;91.45
7376;BME280;3728;42.266;24.944;2023-02-28T06:04:07;100405.31;;;11.45;90.44
7376;BME280;3728;42.266;24.944;2023-02-28T06:06:51;100407.88;;;11.50;90.02
7376;BME280;3728;42.266;24.944;2023-02-28T06:09:18;100407.88;;;11.50;89.15
7376;BME280;3728;42.266;24.944;2023-02-28T06:11:46;100409.63;;;11.55;90.00
7376;BME280;3728;42.266;24.944;2023-02-28T06:14:17;100409.84;;;11.58;89.54
7376;BME280;3728;42.266;24.944;2023-02-28T06:16:46;100419.94;;;11.70;89.71
7376;BME280;3728;42.266;24.944;2023-02-28T06:19:14;100416.16;;;11.57;89.79
7376;BME280;3728;42.266;24.944;2023-02-28T06:21:42;100413.19;;;11.83;87.69
7376;BME280;3728;42.266;24.944;2023-02-28T06:24:10;100412.31;;;11.50;89.28
7376;BME280;3728;42.266;24.944;2023-02-28T06:26:37;100418.69;;;11.68;87.65
7376;BME280;3728;42.266;24.944;2023-02-28T06:29:05;100419.16;;;11.70;87.12
7376;BME280;3728;42.266;24.944;2023-02-28T06:31:32;100430.00;;;11.63;88.45
7376;BME280;3728;42.266;24.944;2023-02-28T06:34:00;100427.16;;;11.59;89.10
7376;BME280;3728;42.266;24.944;2023-02-28T06:36:28;100432.94;;;11.56;88.46
7376;BME280;3728;42.266;24.944;2023-02-28T06:38:55;100436.72;;;11.50;89.32
7376;BME280;3728;42.266;24.944;2023-02-28T06:41:25;100435.50;;;11.61;89.05
7376;BME280;3728;42.266;24.944;2023-02-28T06:43:55;100435.97;;;11.68;88.37
7376;BME280;3728;42.266;24.944;2023-02-28T06:46:23;100429.78;;;11.78;87.02
7376;BME280;3728;42.266;24.944;2023-02-28T06:48:50;100433.19;;;11.60;88.67
7376;BME280;3728;42.266;24.944;2023-02-28T06:51:19;100431.75;;;11.49;89.19
7376;BME280;3728;42.266;24.944;2023-02-28T06:53:48;100434.09;;;11.50;89.09
7376;BME280;3728;42.266;24.944;2023-02-28T06:56:18;100435.44;;;11.48;89.63
7376;BME280;3728;42.266;24.944;2023-02-28T06:58:47;100438.06;;;11.48;88.39
7376;BME280;3728;42.266;24.944;2023-02-28T07:01:17;100439.69;;;11.44;90.26
7376;BME280;3728;42.266;24.944;2023-02-28T07:03:45;100446.00;;;11.61;88.19
7376;BME280;3728;42.266;24.944;2023-02-28T07:06:13;100429.38;;;11.71;86.89
7376;BME280;3728;42.266;24.944;2023-02-28T07:08:40;100441.63;;;11.76;86.50
7376;BME280;3728;42.266;24.944;2023-02-28T07:11:08;100447.97;;;11.75;86.78
7376;BME280;3728;42.266;24.944;2023-02-28T07:13:36;100447.34;;;11.59;87.90
7376;BME280;3728;42.266;24.944;2023-02-28T07:16:06;100448.84;;;11.65;87.60
7376;BME280;3728;42.266;24.944;2023-02-28T07:18:36;100451.25;;;11.61;87.66
7376;BME280;3728;42.266;24.944;2023-02-28T07:21:06;100451.03;;;11.58;87.30
7376;BME280;3728;42.266;24.944;2023-02-28T07:23:36;100454.78;;;11.52;88.09
7376;BME280;3728;42.266;24.944;2023-02-28T07:26:05;100455.69;;;11.42;89.30
7376;BME280;3728;42.266;24.944;2023-02-28T07:28:34;100449.97;;;11.59;89.22
7376;BME280;3728;42.266;24.944;2023-02-28T07:31:06;100451.94;;;11.72;87.71
7376;BME280;3728;42.266;24.944;2023-02-28T07:33:34;100454.38;;;11.63;88.14
7376;BME280;3728;42.266;24.944;2023-02-28T07:36:06;100448.13;;;11.59;88.37
7376;BME280;3728;42.266;24.944;2023-02-28T07:38:44;100454.59;;;11.67;87.58
7376;BME280;3728;42.266;24.944;2023-02-28T07:41:16;100463.72;;;11.75;86.88
7376;BME280;3728;42.266;24.944;2023-02-28T07:43:45;100457.78;;;11.64;87.35
7376;BME280;3728;42.266;24.944;2023-02-28T07:46:14;100472.69;;;11.68;87.87
7376;BME280;3728;42.266;24.944;2023-02-28T07:48:43;100470.06;;;11.68;87.10
7376;BME280;3728;42.266;24.944;2023-02-28T07:51:11;100477.06;;;11.54;86.61
7376;BME280;3728;42.266;24.944;2023-02-28T07:53:39;100485.69;;;11.36;88.22
7376;BME280;3728;42.266;24.944;2023-02-28T07:56:07;100480.94;;;11.38;87.60
7376;BME280;3728;42.266;24.944;2023-02-28T07:58:34;100477.75;;;11.41;88.35
7376;BME280;3728;42.266;24.944;2023-02-28T08:01:07;100462.50;;;11.25;88.86
7376;BME280;3728;42.266;24.944;2023-02-28T08:03:36;100473.75;;;11.25;89.39
7376;BME280;3728;42.266;24.944;2023-02-28T08:06:06;100475.16;;;11.18;89.05
7376;BME280;3728;42.266;24.944;2023-02-28T08:08:35;100467.00;;;11.19;90.05
7376;BME280;3728;42.266;24.944;2023-02-28T08:11:03;100470.34;;;11.01;90.99
7376;BME280;3728;42.266;24.944;2023-02-28T08:13:31;100475.25;;;11.31;90.02
7376;BME280;3728;42.266;24.944;2023-02-28T08:16:01;100478.78;;;11.22;90.29
7376;BME280;3728;42.266;24.944;2023-02-28T08:18:29;100480.06;;;11.24;90.82
7376;BME280;3728;42.266;24.944;2023-02-28T08:20:57;100480.09;;;11.43;89.46
7376;BME280;3728;42.266;24.944;2023-02-28T08:23:25;100483.09;;;11.55;88.67
7376;BME280;3728;42.266;24.944;2023-02-28T08:25:56;100485.66;;;11.60;88.03
7376;BME280;3728;42.266;24.944;2023-02-28T08:28:23;100469.97;;;11.55;88.67
7376;BME280;3728;42.266;24.944;2023-02-28T08:30:53;100466.19;;;11.42;90.09
7376;BME280;3728;42.266;24.944;2023-02-28T08:33:21;100471.16;;;11.44;88.85
7376;BME280;3728;42.266;24.944;2023-02-28T08:35:53;100465.94;;;11.44;88.46
7376;BME280;3728;42.266;24.944;2023-02-28T08:38:23;100467.22;;;11.46;89.75
7376;BME280;3728;42.266;24.944;2023-02-28T08:41:00;100469.13;;;11.59;88.15
7376;BME280;3728;42.266;24.944;2023-02-28T08:43:29;100472.94;;;11.48;89.40
7376;BME280;3728;42.266;24.944;2023-02-28T08:45:57;100471.13;;;11.49;88.63
7376;BME280;3728;42.266;24.944;2023-02-28T08:48:28;100477.91;;;11.50;89.25
7376;BME280;3728;42.266;24.944;2023-02-28T08:51:04;100481.53;;;11.54;88.57
7376;BME280;3728;42.266;24.944;2023-02-28T08:53:36;100479.19;;;11.52;89.20
7376;BME280;3728;42.266;24.944;2023-02-28T08:56:11;100485.69;;;11.36;90.26
7376;BME280;3728;42.266;24.944;2023-02-28T08:58:40;100487.31;;;11.32;90.73
7376;BME280;3728;42.266;24.944;2023-02-28T09:01:13;100486.47;;;11.37;90.53
7376;BME280;3728;42.266;24.944;2023-02-28T09:03:51;100491.81;;;11.27;91.91
7376;BME280;3728;42.266;24.944;2023-02-28T09:06:21;100499.69;;;11.27;91.67
7376;BME280;3728;42.266;24.944;2023-02-28T09:08:50;100504.72;;;11.23;91.32
7376;BME280;3728;42.266;24.944;2023-02-28T09:11:18;100505.78;;;11.22;92.79
7376;BME280;3728;42.266;24.944;2023-02-28T09:13:46;100504.00;;;11.18;91.91
7376;BME280;3728;42.266;24.944;2023-02-28T09:16:14;100503.75;;;11.14;93.53
7376;BME280;3728;42.266;24.944;2023-02-28T09:18:43;100493.50;;;10.94;94.08
7376;BME280;3728;42.266;24.944;2023-02-28T09:21:13;100497.16;;;10.93;95.30
7376;BME280;3728;42.266;24.944;2023-02-28T09:23:43;100486.19;;;10.91;95.23
7376;BME280;3728;42.266;24.944;2023-02-28T09:26:19;100480.41;;;10.94;96.16
7376;BME280;3728;42.266;24.944;2023-02-28T09:28:49;100483.31;;;11.16;94.47
7376;BME280;3728;42.266;24.944;2023-02-28T09:31:20;100481.25;;;11.13;95.38
7376;BME280;3728;42.266;24.944;2023-02-28T09:33:52;100476.09;;;11.27;94.39
7376;BME280;3728;42.266;24.944;2023-02-28T09:36:24;100472.13;;;11.29;95.76
7376;BME280;3728;42.266;24.944;2023-02-28T09:39:09;100470.88;;;11.45;93.17
7376;BME280;3728;42.266;24.944;2023-02-28T09:41:41;100478.69;;;11.50;92.19
7376;BME280;3728;42.266;24.944;2023-02-28T09:47:07;100466.69;;;11.68;92.94
7376;BME280;3728;42.266;24.944;2023-02-28T09:49:46;100459.03;;;11.72;90.70
7376;BME280;3728;42.266;24.944;2023-02-28T09:52:29;100452.94;;;11.52;92.04
7376;BME280;3728;42.266;24.944;2023-02-28T09:58:18;100451.94;;;11.72;91.34
7376;BME280;3728;42.266;24.944;2023-02-28T10:04:52;100462.56;;;11.38;94.80
7376;BME280;3728;42.266;24.944;2023-02-28T10:10:41;100454.47;;;11.96;90.62
7376;BME280;3728;42.266;24.944;2023-02-28T10:13:34;100453.41;;;11.78;90.24
7376;BME280;3728;42.266;24.944;2023-02-28T10:22:38;100436.22;;;11.06;97.51
7376;BME280;3728;42.266;24.944;2023-02-28T10:27:50;100433.22;;;11.36;94.61
7376;BME280;3728;42.266;24.944;2023-02-28T10:30:26;100430.06;;;11.58;94.51
7376;BME280;3728;42.266;24.944;2023-02-28T10:32:54;100431.53;;;12.01;90.63
7376;BME280;3728;42.266;24.944;2023-02-28T10:35:24;100435.66;;;11.51;93.21
7376;BME280;3728;42.266;24.944;2023-02-28T10:37:57;100427.50;;;11.34;94.95
7376;BME280;3728;42.266;24.944;2023-02-28T10:40:34;100419.22;;;11.46;94.71
7376;BME280;3728;42.266;24.944;2023-02-28T10:43:07;100414.13;;;11.73;91.88
7376;BME280;3728;42.266;24.944;2023-02-28T10:46:10;100408.06;;;11.35;95.22
7376;BME280;3728;42.266;24.944;2023-02-28T10:48:47;100405.69;;;11.76;93.29
7376;BME280;3728;42.266;24.944;2023-02-28T10:51:24;100409.28;;;11.61;92.04
7376;BME280;3728;42.266;24.944;2023-02-28T10:53:54;100400.28;;;11.30;94.79
7376;BME280;3728;42.266;24.944;2023-02-28T10:56:28;100401.41;;;11.80;93.28
7376;BME280;3728;42.266;24.944;2023-02-28T10:59:26;100402.13;;;11.86;90.51
7376;BME280;3728;42.266;24.944;2023-02-28T11:01:56;100395.94;;;11.58;93.28
7376;BME280;3728;42.266;24.944;2023-02-28T11:07:25;100394.59;;;11.60;93.96
7376;BME280;3728;42.266;24.944;2023-02-28T11:09:57;100396.50;;;11.36;95.14
7376;BME280;3728;42.266;24.944;2023-02-28T11:12:38;100393.53;;;11.24;97.06
7376;BME280;3728;42.266;24.944;2023-02-28T11:15:24;100391.22;;;11.79;92.53
7376;BME280;3728;42.266;24.944;2023-02-28T11:18:24;100396.22;;;11.56;92.49
7376;BME280;3728;42.266;24.944;2023-02-28T11:21:00;100393.03;;;11.41;94.78
7376;BME280;3728;42.266;24.944;2023-02-28T11:23:32;100392.53;;;11.20;94.39
7376;BME280;3728;42.266;24.944;2023-02-28T11:26:04;100387.34;;;11.15;96.36
7376;BME280;3728;42.266;24.944;2023-02-28T11:28:34;100383.75;;;11.30;95.29
7376;BME280;3728;42.266;24.944;2023-02-28T11:31:15;100385.19;;;11.41;93.82
7376;BME280;3728;42.266;24.944;2023-02-28T11:36:24;100387.59;;;11.37;95.04
7376;BME280;3728;42.266;24.944;2023-02-28T11:39:00;100375.72;;;11.21;96.12
7376;BME280;3728;42.266;24.944;2023-02-28T11:45:40;100374.19;;;11.20;97.29
7376;BME280;3728;42.266;24.944;2023-02-28T11:48:34;100384.59;;;11.62;94.34
7376;BME280;3728;42.266;24.944;2023-02-28T11:51:21;100381.66;;;11.69;93.93
7376;BME280;3728;42.266;24.944;2023-02-28T11:56:44;100377.22;;;11.83;90.68
7376;BME280;3728;42.266;24.944;2023-02-28T12:04:56;100378.66;;;11.38;92.32
7376;BME280;3728;42.266;24.944;2023-02-28T12:07:55;100374.94;;;11.02;94.56
7376;BME280;3728;42.266;24.944;2023-02-28T12:11:09;100378.88;;;11.42;92.62
7376;BME280;3728;42.266;24.944;2023-02-28T12:28:37;100370.91;;;11.28;92.96
7376;BME280;3728;42.266;24.944;2023-02-28T12:31:19;100369.31;;;11.32;94.21
7376;BME280;3728;42.266;24.944;2023-02-28T12:33:53;100360.50;;;11.60;91.79
7376;BME280;3728;42.266;24.944;2023-02-28T12:36:39;100364.09;;;11.83;89.80
7376;BME280;3728;42.266;24.944;2023-02-28T12:39:29;100365.81;;;11.74;89.14
7376;BME280;3728;42.266;24.944;2023-02-28T12:42:30;100360.50;;;11.60;90.18
7376;BME280;3728;42.266;24.944;2023-02-28T12:45:02;100358.56;;;11.85;88.18
7376;BME280;3728;42.266;24.944;2023-02-28T12:47:38;100366.28;;;11.95;87.49
7376;BME280;3728;42.266;24.944;2023-02-28T12:50:11;100357.03;;;11.65;89.24
7376;BME280;3728;42.266;24.944;2023-02-28T12:53:31;100355.19;;;11.84;88.47
7376;BME280;3728;42.266;24.944;2023-02-28T12:56:29;100350.53;;;11.95;86.72
7376;BME280;3728;42.266;24.944;2023-02-28T12:59:42;100345.59;;;12.07;87.30
7376;BME280;3728;42.266;24.944;2023-02-28T13:09:01;100349.84;;;11.89;87.75
7376;BME280;3728;42.266;24.944;2023-02-28T13:11:48;100347.66;;;12.10;85.53
7376;BME280;3728;42.266;24.944;2023-02-28T13:14:37;100353.81;;;11.87;87.42
7376;BME280;3728;42.266;24.944;2023-02-28T13:19:38;100348.84;;;11.85;89.39
7376;BME280;3728;42.266;24.944;2023-02-28T13:28:12;100348.84;;;11.85;92.31
7376;BME280;3728;42.266;24.944;2023-02-28T13:33:33;100348.50;;;11.54;94.46
7376;BME280;3728;42.266;24.944;2023-02-28T13:36:29;100340.22;;;11.47;95.83
7376;BME280;3728;42.266;24.944;2023-02-28T13:38:59;100336.66;;;11.76;93.78
7376;BME280;3728;42.266;24.944;2023-02-28T13:46:25;100341.59;;;11.96;93.52
7376;BME280;3728;42.266;24.944;2023-02-28T13:48:53;100340.97;;;11.85;93.39
7376;BME280;3728;42.266;24.944;2023-02-28T13:51:39;100339.44;;;11.84;94.72
7376;BME280;3728;42.266;24.944;2023-02-28T14:00:16;100338.09;;;11.31;100.00
7376;BME280;3728;42.266;24.944;2023-02-28T14:11:46;100331.69;;;11.23;100.00
7376;BME280;3728;42.266;24.944;2023-02-28T14:17:05;100333.19;;;10.87;100.00
7376;BME280;3728;42.266;24.944;2023-02-28T14:19:37;100343.38;;;10.88;100.00
7376;BME280;3728;42.266;24.944;2023-02-28T14:25:43;100347.47;;;11.18;100.00
7376;BME280;3728;42.266;24.944;2023-02-28T14:31:43;100346.84;;;10.84;100.00
7376;BME280;3728;42.266;24.944;2023-02-28T14:34:28;100353.81;;;10.70;100.00
7376;BME280;3728;42.266;24.944;2023-02-28T14:37:20;100358.53;;;10.73;100.00
7376;BME280;3728;42.266;24.944;2023-02-28T14:39:54;100353.88;;;11.07;100.00
7376;BME280;3728;42.266;24.944;2023-02-28T14:42:32;100359.44;;;11.43;100.00
7376;BME280;3728;42.266;24.944;2023-02-28T14:45:02;100361.94;;;11.16;100.00
7376;BME280;3728;42.266;24.944;2023-02-28T14:47:32;100355.69;;;11.30;100.00
7376;BME280;3728;42.266;24.944;2023-02-28T14:50:02;100356.25;;;11.09;100.00
7376;BME280;3728;42.266;24.944;2023-02-28T14:52:32;100353.41;;;11.05;100.00
7376;BME280;3728;42.266;24.944;2023-02-28T14:55:06;100349.44;;;11.26;100.00
7376;BME280;3728;42.266;24.944;2023-02-28T14:57:50;100358.81;;;11.32;100.00
7376;BME280;3728;42.266;24.944;2023-02-28T15:00:33;100357.53;;;11.11;100.00
7376;BME280;3728;42.266;24.944;2023-02-28T15:03:23;100361.38;;;11.19;100.00
7376;BME280;3728;42.266;24.944;2023-02-28T15:05:54;100361.94;;;11.16;99.27
7376;BME280;3728;42.266;24.944;2023-02-28T15:08:46;100374.75;;;10.75;100.00
7376;BME280;3728;42.266;24.944;2023-02-28T15:11:18;100376.63;;;11.12;100.00
7376;BME280;3728;42.266;24.944;2023-02-28T15:13:50;100380.63;;;11.09;99.35
7376;BME280;3728;42.266;24.944;2023-02-28T15:16:22;100379.75;;;10.95;100.00
7376;BME280;3728;42.266;24.944;2023-02-28T15:18:56;100384.47;;;10.93;100.00
7376;BME280;3728;42.266;24.944;2023-02-28T15:21:33;100397.81;;;10.96;100.00
7376;BME280;3728;42.266;24.944;2023-02-28T15:27:06;100400.09;;;10.79;100.00
7376;BME280;3728;42.266;24.944;2023-02-28T15:29:46;100402.56;;;10.71;100.00
7376;BME280;3728;42.266;24.944;2023-02-28T15:32:31;100408.06;;;10.93;100.00
7376;BME280;3728;42.266;24.944;2023-02-28T15:40:25;100407.94;;;10.56;100.00
7376;BME280;3728;42.266;24.944;2023-02-28T15:43:18;100408.00;;;10.51;100.00
7376;BME280;3728;42.266;24.944;2023-02-28T15:45:52;100405.63;;;10.54;100.00
7376;BME280;3728;42.266;24.944;2023-02-28T15:48:55;100407.22;;;10.50;100.00
7376;BME280;3728;42.266;24.944;2023-02-28T15:51:33;100405.44;;;10.46;100.00
7376;BME280;3728;42.266;24.944;2023-02-28T15:54:08;100413.53;;;10.15;100.00
7376;BME280;3728;42.266;24.944;2023-02-28T15:56:45;100412.34;;;10.60;100.00
7376;BME280;3728;42.266;24.944;2023-02-28T15:59:27;100414.63;;;10.43;100.00
7376;BME280;3728;42.266;24.944;2023-02-28T16:02:19;100414.06;;;10.46;100.00